sensor_id;sensor_type;location;lat;lon;timestamp;P1;durP1;ratioP1;P2;durP2;ratioP2
76202;SDS011;64985;46.364;17.008;2023-07-29T00:02:30;10.18;;;5.75;;
76202;SDS011;64985;46.364;17.008;2023-07-29T00:05:34;7.15;;;5.55;;
76202;SDS011;64985;46.364;17.008;2023-07-29T00:08:36;9.57;;;6.13;;
76202;SDS011;64985;46.364;17.008;2023-07-29T00:11:38;9.05;;;6.03;;
76202;SDS011;64985;46.364;17.008;2023-07-29T00:14:40;8.02;;;6.00;;
76202;SDS011;64985;46.364;17.008;2023-07-29T00:17:42;8.48;;;6.10;;
76202;SDS011;64985;46.364;17.008;2023-07-29T00:20:45;8.90;;;6.20;;
76202;SDS011;64985;46.364;17.008;2023-07-29T00:23:47;7.80;;;6.35;;
76202;SDS011;64985;46.364;17.008;2023-07-29T00:26:49;7.80;;;6.28;;
76202;SDS011;64985;46.364;17.008;2023-07-29T00:29:51;10.65;;;6.20;;
76202;SDS011;64985;46.364;17.008;2023-07-29T00:32:53;8.93;;;5.57;;
76202;SDS011;64985;46.364;17.008;2023-07-29T00:35:56;9.85;;;6.70;;
76202;SDS011;64985;46.364;17.008;2023-07-29T00:38:58;9.05;;;6.15;;
76202;SDS011;64985;46.364;17.008;2023-07-29T00:42:00;10.60;;;6.65;;
76202;SDS011;64985;46.364;17.008;2023-07-29T00:45:02;8.55;;;5.97;;
76202;SDS011;64985;46.364;17.008;2023-07-29T00:48:04;10.30;;;6.97;;
76202;SDS011;64985;46.364;17.008;2023-07-29T00:51:07;10.05;;;5.72;;
76202;SDS011;64985;46.364;17.008;2023-07-29T00:54:09;8.32;;;5.50;;
76202;SDS011;64985;46.364;17.008;2023-07-29T00:57:11;12.10;;;6.22;;
76202;SDS011;64985;46.364;17.008;2023-07-29T01:00:17;10.25;;;6.15;;
76202;SDS011;64985;46.364;17.008;2023-07-29T01:03:19;12.93;;;6.68;;
76202;SDS011;64985;46.364;17.008;2023-07-29T01:13:43;10.93;;;7.05;;
76202;SDS011;64985;46.364;17.008;2023-07-29T01:16:34;13.38;;;7.03;;
76202;SDS011;64985;46.364;17.008;2023-07-29T01:23:07;17.48;;;6.93;;
76202;SDS011;64985;46.364;17.008;2023-07-29T01:26:09;9.02;;;7.25;;
76202;SDS011;64985;46.364;17.008;2023-07-29T01:29:11;9.35;;;6.75;;
76202;SDS011;64985;46.364;17.008;2023-07-29T01:32:14;10.15;;;7.10;;
76202;SDS011;64985;46.364;17.008;2023-07-29T01:35:23;10.20;;;7.43;;
76202;SDS011;64985;46.364;17.008;2023-07-29T01:38:44;8.32;;;6.85;;
76202;SDS011;64985;46.364;17.008;2023-07-29T01:41:48;8.98;;;7.07;;
76202;SDS011;64985;46.364;17.008;2023-07-29T01:44:51;14.85;;;7.13;;
76202;SDS011;64985;46.364;17.008;2023-07-29T01:47:53;13.13;;;7.10;;
76202;SDS011;64985;46.364;17.008;2023-07-29T01:50:55;10.23;;;6.75;;
76202;SDS011;64985;46.364;17.008;2023-07-29T01:53:57;11.05;;;6.63;;
76202;SDS011;64985;46.364;17.008;2023-07-29T01:57:01;13.50;;;7.20;;
76202;SDS011;64985;46.364;17.008;2023-07-29T02:00:03;13.88;;;7.38;;
76202;SDS011;64985;46.364;17.008;2023-07-29T02:03:06;8.85;;;7.35;;
76202;SDS011;64985;46.364;17.008;2023-07-29T02:06:08;11.13;;;6.95;;
76202;SDS011;64985;46.364;17.008;2023-07-29T02:09:11;9.50;;;6.70;;
76202;SDS011;64985;46.364;17.008;2023-07-29T02:12:13;12.40;;;6.78;;
76202;SDS011;64985;46.364;17.008;2023-07-29T02:15:15;11.27;;;7.25;;
76202;SDS011;64985;46.364;17.008;2023-07-29T02:18:17;17.20;;;7.35;;
76202;SDS011;64985;46.364;17.008;2023-07-29T02:21:19;12.80;;;6.75;;
76202;SDS011;64985;46.364;17.008;2023-07-29T02:24:21;11.95;;;7.38;;
76202;SDS011;64985;46.364;17.008;2023-07-29T02:27:24;11.02;;;6.45;;
76202;SDS011;64985;46.364;17.008;2023-07-29T02:30:28;11.15;;;6.82;;
76202;SDS011;64985;46.364;17.008;2023-07-29T02:33:30;8.10;;;6.57;;
76202;SDS011;64985;46.364;17.008;2023-07-29T02:36:32;9.23;;;7.18;;
76202;SDS011;64985;46.364;17.008;2023-07-29T02:39:35;11.13;;;7.00;;
76202;SDS011;64985;46.364;17.008;2023-07-29T02:42:38;11.52;;;7.13;;
76202;SDS011;64985;46.364;17.008;2023-07-29T02:45:40;10.52;;;6.95;;
76202;SDS011;64985;46.364;17.008;2023-07-29T02:48:43;12.60;;;6.88;;
76202;SDS011;64985;46.364;17.008;2023-07-29T02:51:46;11.48;;;7.22;;
76202;SDS011;64985;46.364;17.008;2023-07-29T02:54:48;15.68;;;7.93;;
76202;SDS011;64985;46.364;17.008;2023-07-29T02:57:50;15.75;;;7.63;;
76202;SDS011;64985;46.364;17.008;2023-07-29T03:00:52;10.02;;;7.32;;
76202;SDS011;64985;46.364;17.008;2023-07-29T03:03:54;11.02;;;7.50;;
76202;SDS011;64985;46.364;17.008;2023-07-29T03:06:57;12.90;;;7.13;;
76202;SDS011;64985;46.364;17.008;2023-07-29T03:10:00;12.48;;;6.70;;
76202;SDS011;64985;46.364;17.008;2023-07-29T03:13:03;9.63;;;7.00;;
76202;SDS011;64985;46.364;17.008;2023-07-29T03:16:06;10.40;;;7.00;;
76202;SDS011;64985;46.364;17.008;2023-07-29T03:19:08;11.75;;;7.32;;
76202;SDS011;64985;46.364;17.008;2023-07-29T03:22:10;13.90;;;7.35;;
76202;SDS011;64985;46.364;17.008;2023-07-29T03:25:13;12.90;;;7.35;;
76202;SDS011;64985;46.364;17.008;2023-07-29T03:28:15;10.57;;;7.20;;
76202;SDS011;64985;46.364;17.008;2023-07-29T03:31:17;12.30;;;8.63;;
76202;SDS011;64985;46.364;17.008;2023-07-29T03:34:19;11.18;;;8.10;;
76202;SDS011;64985;46.364;17.008;2023-07-29T03:37:21;11.85;;;8.60;;
76202;SDS011;64985;46.364;17.008;2023-07-29T03:40:24;14.57;;;8.23;;
76202;SDS011;64985;46.364;17.008;2023-07-29T03:43:26;13.25;;;8.07;;
76202;SDS011;64985;46.364;17.008;2023-07-29T03:46:28;11.55;;;8.48;;
76202;SDS011;64985;46.364;17.008;2023-07-29T03:49:30;12.63;;;8.10;;
76202;SDS011;64985;46.364;17.008;2023-07-29T03:52:32;13.18;;;8.20;;
76202;SDS011;64985;46.364;17.008;2023-07-29T03:55:34;10.95;;;7.85;;
76202;SDS011;64985;46.364;17.008;2023-07-29T03:58:36;11.52;;;8.00;;
76202;SDS011;64985;46.364;17.008;2023-07-29T04:01:38;14.40;;;8.40;;
76202;SDS011;64985;46.364;17.008;2023-07-29T04:04:41;13.02;;;8.25;;
76202;SDS011;64985;46.364;17.008;2023-07-29T04:07:45;11.23;;;7.47;;
76202;SDS011;64985;46.364;17.008;2023-07-29T04:10:48;13.80;;;7.72;;
76202;SDS011;64985;46.364;17.008;2023-07-29T04:13:50;12.13;;;8.15;;
76202;SDS011;64985;46.364;17.008;2023-07-29T04:16:52;11.45;;;7.53;;
76202;SDS011;64985;46.364;17.008;2023-07-29T04:19:54;13.18;;;7.65;;
76202;SDS011;64985;46.364;17.008;2023-07-29T04:22:56;12.70;;;7.63;;
76202;SDS011;64985;46.364;17.008;2023-07-29T04:25:58;12.48;;;8.60;;
76202;SDS011;64985;46.364;17.008;2023-07-29T04:29:00;10.25;;;7.95;;
76202;SDS011;64985;46.364;17.008;2023-07-29T04:32:03;12.98;;;8.65;;
76202;SDS011;64985;46.364;17.008;2023-07-29T04:35:06;14.00;;;8.98;;
76202;SDS011;64985;46.364;17.008;2023-07-29T04:38:09;11.23;;;8.15;;
76202;SDS011;64985;46.364;17.008;2023-07-29T04:41:11;13.48;;;8.00;;
76202;SDS011;64985;46.364;17.008;2023-07-29T04:44:13;14.98;;;7.80;;
76202;SDS011;64985;46.364;17.008;2023-07-29T04:47:15;10.60;;;7.35;;
76202;SDS011;64985;46.364;17.008;2023-07-29T04:50:17;9.63;;;7.50;;
76202;SDS011;64985;46.364;17.008;2023-07-29T04:53:19;11.90;;;7.55;;
76202;SDS011;64985;46.364;17.008;2023-07-29T04:56:21;16.08;;;7.53;;
76202;SDS011;64985;46.364;17.008;2023-07-29T04:59:24;10.40;;;7.03;;
76202;SDS011;64985;46.364;17.008;2023-07-29T05:02:26;8.35;;;6.47;;
76202;SDS011;64985;46.364;17.008;2023-07-29T05:05:28;9.80;;;6.75;;
76202;SDS011;64985;46.364;17.008;2023-07-29T05:08:30;10.63;;;5.32;;
76202;SDS011;64985;46.364;17.008;2023-07-29T05:11:32;9.05;;;4.93;;
76202;SDS011;64985;46.364;17.008;2023-07-29T05:14:34;8.73;;;4.95;;
76202;SDS011;64985;46.364;17.008;2023-07-29T05:17:37;7.25;;;5.10;;
76202;SDS011;64985;46.364;17.008;2023-07-29T05:20:39;9.48;;;4.72;;
76202;SDS011;64985;46.364;17.008;2023-07-29T05:23:41;8.23;;;4.93;;
76202;SDS011;64985;46.364;17.008;2023-07-29T05:26:44;7.20;;;4.60;;
76202;SDS011;64985;46.364;17.008;2023-07-29T05:29:46;8.30;;;5.03;;
76202;SDS011;64985;46.364;17.008;2023-07-29T05:32:48;8.45;;;4.75;;
76202;SDS011;64985;46.364;17.008;2023-07-29T05:35:50;8.63;;;5.13;;
76202;SDS011;64985;46.364;17.008;2023-07-29T05:38:52;8.73;;;5.22;;
76202;SDS011;64985;46.364;17.008;2023-07-29T05:41:54;9.15;;;5.55;;
76202;SDS011;64985;46.364;17.008;2023-07-29T05:44:56;9.43;;;5.38;;
76202;SDS011;64985;46.364;17.008;2023-07-29T05:47:59;6.93;;;5.28;;
76202;SDS011;64985;46.364;17.008;2023-07-29T05:51:01;5.85;;;5.00;;
76202;SDS011;64985;46.364;17.008;2023-07-29T05:54:03;5.70;;;4.88;;
76202;SDS011;64985;46.364;17.008;2023-07-29T05:57:05;7.47;;;4.80;;
76202;SDS011;64985;46.364;17.008;2023-07-29T06:00:08;5.93;;;4.25;;
76202;SDS011;64985;46.364;17.008;2023-07-29T06:03:11;8.27;;;4.30;;
76202;SDS011;64985;46.364;17.008;2023-07-29T06:06:13;10.25;;;4.18;;
76202;SDS011;64985;46.364;17.008;2023-07-29T06:09:16;6.07;;;3.95;;
76202;SDS011;64985;46.364;17.008;2023-07-29T06:12:18;5.82;;;4.03;;
76202;SDS011;64985;46.364;17.008;2023-07-29T06:15:20;5.05;;;3.67;;
76202;SDS011;64985;46.364;17.008;2023-07-29T06:18:24;5.88;;;3.90;;
76202;SDS011;64985;46.364;17.008;2023-07-29T06:21:26;7.15;;;3.70;;
76202;SDS011;64985;46.364;17.008;2023-07-29T06:24:28;7.47;;;3.50;;
76202;SDS011;64985;46.364;17.008;2023-07-29T06:27:31;3.92;;;3.47;;
76202;SDS011;64985;46.364;17.008;2023-07-29T06:30:33;6.18;;;3.45;;
76202;SDS011;64985;46.364;17.008;2023-07-29T06:33:35;4.32;;;3.38;;
76202;SDS011;64985;46.364;17.008;2023-07-29T06:36:37;5.55;;;3.75;;
76202;SDS011;64985;46.364;17.008;2023-07-29T06:39:40;4.18;;;3.40;;
76202;SDS011;64985;46.364;17.008;2023-07-29T06:42:42;8.25;;;4.15;;
76202;SDS011;64985;46.364;17.008;2023-07-29T06:45:44;5.80;;;3.92;;
76202;SDS011;64985;46.364;17.008;2023-07-29T06:48:46;4.60;;;3.72;;
76202;SDS011;64985;46.364;17.008;2023-07-29T06:51:48;5.32;;;3.78;;
76202;SDS011;64985;46.364;17.008;2023-07-29T06:54:51;4.28;;;3.30;;
76202;SDS011;64985;46.364;17.008;2023-07-29T06:57:53;5.07;;;3.55;;
76202;SDS011;64985;46.364;17.008;2023-07-29T07:00:55;8.98;;;3.78;;
76202;SDS011;64985;46.364;17.008;2023-07-29T07:03:58;3.67;;;3.20;;
76202;SDS011;64985;46.364;17.008;2023-07-29T07:07:00;4.97;;;3.30;;
76202;SDS011;64985;46.364;17.008;2023-07-29T07:10:02;3.75;;;3.15;;
76202;SDS011;64985;46.364;17.008;2023-07-29T07:13:05;3.63;;;3.25;;
76202;SDS011;64985;46.364;17.008;2023-07-29T07:16:07;3.97;;;3.30;;
76202;SDS011;64985;46.364;17.008;2023-07-29T07:19:09;7.53;;;3.50;;
76202;SDS011;64985;46.364;17.008;2023-07-29T07:22:12;3.40;;;3.10;;
76202;SDS011;64985;46.364;17.008;2023-07-29T07:25:14;6.28;;;3.50;;
76202;SDS011;64985;46.364;17.008;2023-07-29T07:28:16;5.82;;;3.25;;
76202;SDS011;64985;46.364;17.008;2023-07-29T07:31:19;7.03;;;3.83;;
76202;SDS011;64985;46.364;17.008;2023-07-29T07:34:21;4.70;;;3.00;;
76202;SDS011;64985;46.364;17.008;2023-07-29T07:37:23;4.55;;;3.30;;
76202;SDS011;64985;46.364;17.008;2023-07-29T07:40:25;4.40;;;3.20;;
76202;SDS011;64985;46.364;17.008;2023-07-29T07:43:28;3.70;;;3.05;;
76202;SDS011;64985;46.364;17.008;2023-07-29T07:46:30;5.45;;;3.22;;
76202;SDS011;64985;46.364;17.008;2023-07-29T07:49:33;7.38;;;3.40;;
76202;SDS011;64985;46.364;17.008;2023-07-29T07:52:35;5.03;;;3.20;;
76202;SDS011;64985;46.364;17.008;2023-07-29T07:55:37;3.22;;;2.67;;
76202;SDS011;64985;46.364;17.008;2023-07-29T07:58:39;4.32;;;3.20;;
76202;SDS011;64985;46.364;17.008;2023-07-29T08:01:41;6.97;;;3.42;;
76202;SDS011;64985;46.364;17.008;2023-07-29T08:04:43;3.65;;;3.00;;
76202;SDS011;64985;46.364;17.008;2023-07-29T08:07:45;6.43;;;3.03;;
76202;SDS011;64985;46.364;17.008;2023-07-29T08:10:47;4.68;;;3.05;;
76202;SDS011;64985;46.364;17.008;2023-07-29T08:13:49;4.68;;;3.00;;
76202;SDS011;64985;46.364;17.008;2023-07-29T08:16:52;6.45;;;3.10;;
76202;SDS011;64985;46.364;17.008;2023-07-29T08:19:54;5.45;;;3.00;;
76202;SDS011;64985;46.364;17.008;2023-07-29T08:22:56;4.40;;;3.17;;
76202;SDS011;64985;46.364;17.008;2023-07-29T08:25:58;5.20;;;3.30;;
76202;SDS011;64985;46.364;17.008;2023-07-29T08:29:03;4.10;;;2.70;;
76202;SDS011;64985;46.364;17.008;2023-07-29T08:32:05;4.78;;;3.13;;
76202;SDS011;64985;46.364;17.008;2023-07-29T08:35:07;4.22;;;2.67;;
76202;SDS011;64985;46.364;17.008;2023-07-29T08:38:10;5.07;;;3.05;;
76202;SDS011;64985;46.364;17.008;2023-07-29T08:44:42;5.10;;;3.03;;
76202;SDS011;64985;46.364;17.008;2023-07-29T08:47:45;5.45;;;3.00;;
76202;SDS011;64985;46.364;17.008;2023-07-29T08:50:50;4.70;;;2.90;;
76202;SDS011;64985;46.364;17.008;2023-07-29T08:53:54;5.43;;;2.92;;
76202;SDS011;64985;46.364;17.008;2023-07-29T08:56:57;4.20;;;2.63;;
76202;SDS011;64985;46.364;17.008;2023-07-29T09:00:00;4.40;;;2.92;;
76202;SDS011;64985;46.364;17.008;2023-07-29T09:03:03;4.07;;;2.78;;
76202;SDS011;64985;46.364;17.008;2023-07-29T09:06:08;5.00;;;3.00;;
76202;SDS011;64985;46.364;17.008;2023-07-29T09:09:10;5.13;;;3.00;;
76202;SDS011;64985;46.364;17.008;2023-07-29T09:12:13;4.60;;;2.95;;
76202;SDS011;64985;46.364;17.008;2023-07-29T09:15:25;13.20;;;3.13;;
76202;SDS011;64985;46.364;17.008;2023-07-29T09:18:29;4.03;;;2.70;;
76202;SDS011;64985;46.364;17.008;2023-07-29T09:21:32;4.20;;;2.90;;
76202;SDS011;64985;46.364;17.008;2023-07-29T09:24:34;5.18;;;3.10;;
76202;SDS011;64985;46.364;17.008;2023-07-29T09:27:37;5.00;;;2.88;;
76202;SDS011;64985;46.364;17.008;2023-07-29T09:30:41;5.13;;;2.65;;
76202;SDS011;64985;46.364;17.008;2023-07-29T09:33:46;4.63;;;2.97;;
76202;SDS011;64985;46.364;17.008;2023-07-29T09:36:50;4.35;;;2.45;;
76202;SDS011;64985;46.364;17.008;2023-07-29T09:39:53;3.40;;;2.70;;
76202;SDS011;64985;46.364;17.008;2023-07-29T09:42:55;7.40;;;2.83;;
76202;SDS011;64985;46.364;17.008;2023-07-29T09:46:01;5.15;;;2.72;;
76202;SDS011;64985;46.364;17.008;2023-07-29T09:49:04;4.00;;;2.70;;
76202;SDS011;64985;46.364;17.008;2023-07-29T09:52:07;3.58;;;2.88;;
76202;SDS011;64985;46.364;17.008;2023-07-29T09:55:13;5.13;;;2.47;;
76202;SDS011;64985;46.364;17.008;2023-07-29T09:58:22;4.20;;;2.58;;
76202;SDS011;64985;46.364;17.008;2023-07-29T10:01:28;3.55;;;2.60;;
76202;SDS011;64985;46.364;17.008;2023-07-29T10:04:31;5.88;;;2.65;;
76202;SDS011;64985;46.364;17.008;2023-07-29T10:07:38;3.63;;;2.40;;
76202;SDS011;64985;46.364;17.008;2023-07-29T10:10:41;5.55;;;2.83;;
76202;SDS011;64985;46.364;17.008;2023-07-29T10:13:44;3.03;;;2.55;;
76202;SDS011;64985;46.364;17.008;2023-07-29T10:17:07;4.05;;;2.75;;
76202;SDS011;64985;46.364;17.008;2023-07-29T10:20:10;3.35;;;2.70;;
76202;SDS011;64985;46.364;17.008;2023-07-29T10:23:13;4.65;;;2.92;;
76202;SDS011;64985;46.364;17.008;2023-07-29T10:26:16;4.03;;;2.75;;
76202;SDS011;64985;46.364;17.008;2023-07-29T10:29:22;4.18;;;2.70;;
76202;SDS011;64985;46.364;17.008;2023-07-29T10:32:25;4.85;;;3.13;;
76202;SDS011;64985;46.364;17.008;2023-07-29T10:35:28;5.32;;;3.15;;
76202;SDS011;64985;46.364;17.008;2023-07-29T10:38:31;4.30;;;2.90;;
76202;SDS011;64985;46.364;17.008;2023-07-29T10:44:58;4.93;;;2.95;;
76202;SDS011;64985;46.364;17.008;2023-07-29T10:48:00;4.88;;;2.97;;
76202;SDS011;64985;46.364;17.008;2023-07-29T10:54:28;5.50;;;3.15;;
76202;SDS011;64985;46.364;17.008;2023-07-29T10:57:31;5.13;;;2.80;;
76202;SDS011;64985;46.364;17.008;2023-07-29T11:00:35;3.97;;;3.10;;
76202;SDS011;64985;46.364;17.008;2023-07-29T11:03:37;5.45;;;3.10;;
76202;SDS011;64985;46.364;17.008;2023-07-29T11:10:11;5.00;;;3.10;;
76202;SDS011;64985;46.364;17.008;2023-07-29T11:13:14;4.00;;;2.70;;
76202;SDS011;64985;46.364;17.008;2023-07-29T11:16:17;5.32;;;2.97;;
76202;SDS011;64985;46.364;17.008;2023-07-29T11:19:22;3.40;;;2.70;;
76202;SDS011;64985;46.364;17.008;2023-07-29T11:22:25;3.08;;;2.75;;
76202;SDS011;64985;46.364;17.008;2023-07-29T11:25:28;4.20;;;3.22;;
76202;SDS011;64985;46.364;17.008;2023-07-29T11:28:37;5.57;;;3.35;;
76202;SDS011;64985;46.364;17.008;2023-07-29T11:31:40;4.60;;;2.75;;
76202;SDS011;64985;46.364;17.008;2023-07-29T11:34:42;3.65;;;2.80;;
76202;SDS011;64985;46.364;17.008;2023-07-29T11:37:48;6.38;;;3.00;;
76202;SDS011;64985;46.364;17.008;2023-07-29T11:40:55;4.88;;;2.95;;
76202;SDS011;64985;46.364;17.008;2023-07-29T11:43:58;4.43;;;3.25;;
76202;SDS011;64985;46.364;17.008;2023-07-29T11:47:00;3.70;;;3.03;;
76202;SDS011;64985;46.364;17.008;2023-07-29T11:50:03;5.22;;;3.05;;
76202;SDS011;64985;46.364;17.008;2023-07-29T11:53:07;3.03;;;2.72;;
76202;SDS011;64985;46.364;17.008;2023-07-29T11:56:09;7.47;;;3.42;;
76202;SDS011;64985;46.364;17.008;2023-07-29T11:59:14;5.43;;;3.08;;
76202;SDS011;64985;46.364;17.008;2023-07-29T12:02:17;4.18;;;2.92;;
76202;SDS011;64985;46.364;17.008;2023-07-29T12:05:22;10.27;;;3.20;;
76202;SDS011;64985;46.364;17.008;2023-07-29T12:08:25;5.30;;;2.75;;
76202;SDS011;64985;46.364;17.008;2023-07-29T12:11:28;4.20;;;2.97;;
76202;SDS011;64985;46.364;17.008;2023-07-29T12:14:31;5.50;;;2.80;;
76202;SDS011;64985;46.364;17.008;2023-07-29T12:17:37;4.70;;;2.80;;
76202;SDS011;64985;46.364;17.008;2023-07-29T12:20:42;5.18;;;2.80;;
76202;SDS011;64985;46.364;17.008;2023-07-29T12:23:45;4.13;;;2.50;;
76202;SDS011;64985;46.364;17.008;2023-07-29T12:26:47;4.78;;;2.50;;
76202;SDS011;64985;46.364;17.008;2023-07-29T12:29:51;3.67;;;2.58;;
76202;SDS011;64985;46.364;17.008;2023-07-29T12:32:54;4.75;;;2.55;;
76202;SDS011;64985;46.364;17.008;2023-07-29T12:35:57;5.82;;;2.65;;
76202;SDS011;64985;46.364;17.008;2023-07-29T12:38:59;3.30;;;2.50;;
76202;SDS011;64985;46.364;17.008;2023-07-29T12:42:02;5.10;;;2.60;;
76202;SDS011;64985;46.364;17.008;2023-07-29T12:45:05;3.63;;;2.50;;
76202;SDS011;64985;46.364;17.008;2023-07-29T12:48:08;5.68;;;2.63;;
76202;SDS011;64985;46.364;17.008;2023-07-29T12:51:10;5.60;;;2.80;;
76202;SDS011;64985;46.364;17.008;2023-07-29T12:54:13;3.67;;;2.50;;
76202;SDS011;64985;46.364;17.008;2023-07-29T12:57:15;5.18;;;2.53;;
76202;SDS011;64985;46.364;17.008;2023-07-29T13:00:17;7.25;;;2.90;;
76202;SDS011;64985;46.364;17.008;2023-07-29T13:03:20;6.10;;;2.75;;
76202;SDS011;64985;46.364;17.008;2023-07-29T13:06:22;4.97;;;2.72;;
76202;SDS011;64985;46.364;17.008;2023-07-29T13:09:25;4.07;;;2.40;;
76202;SDS011;64985;46.364;17.008;2023-07-29T13:12:27;5.78;;;2.63;;
76202;SDS011;64985;46.364;17.008;2023-07-29T13:15:29;3.05;;;2.40;;
76202;SDS011;64985;46.364;17.008;2023-07-29T13:18:31;5.88;;;2.80;;
76202;SDS011;64985;46.364;17.008;2023-07-29T13:21:34;5.13;;;2.90;;
76202;SDS011;64985;46.364;17.008;2023-07-29T13:24:36;3.42;;;2.80;;
76202;SDS011;64985;46.364;17.008;2023-07-29T13:27:38;3.63;;;3.00;;
76202;SDS011;64985;46.364;17.008;2023-07-29T13:30:40;4.40;;;2.70;;
76202;SDS011;64985;46.364;17.008;2023-07-29T13:33:43;3.88;;;2.90;;
76202;SDS011;64985;46.364;17.008;2023-07-29T13:36:45;7.80;;;3.10;;
76202;SDS011;64985;46.364;17.008;2023-07-29T13:39:47;5.35;;;2.90;;
76202;SDS011;64985;46.364;17.008;2023-07-29T13:42:49;5.68;;;2.72;;
76202;SDS011;64985;46.364;17.008;2023-07-29T13:45:51;3.20;;;2.63;;
76202;SDS011;64985;46.364;17.008;2023-07-29T13:48:53;5.63;;;3.00;;
76202;SDS011;64985;46.364;17.008;2023-07-29T13:51:55;3.75;;;2.75;;
76202;SDS011;64985;46.364;17.008;2023-07-29T13:54:57;4.20;;;2.90;;
76202;SDS011;64985;46.364;17.008;2023-07-29T13:57:59;4.93;;;2.80;;
76202;SDS011;64985;46.364;17.008;2023-07-29T14:01:01;5.55;;;2.92;;
76202;SDS011;64985;46.364;17.008;2023-07-29T14:04:04;6.65;;;3.03;;
76202;SDS011;64985;46.364;17.008;2023-07-29T14:07:06;6.97;;;3.40;;
76202;SDS011;64985;46.364;17.008;2023-07-29T14:10:08;4.57;;;2.75;;
76202;SDS011;64985;46.364;17.008;2023-07-29T14:13:11;4.57;;;3.00;;
76202;SDS011;64985;46.364;17.008;2023-07-29T14:16:13;4.72;;;2.78;;
76202;SDS011;64985;46.364;17.008;2023-07-29T14:19:15;4.00;;;2.60;;
76202;SDS011;64985;46.364;17.008;2023-07-29T14:22:17;8.18;;;3.03;;
76202;SDS011;64985;46.364;17.008;2023-07-29T14:25:19;3.35;;;2.70;;
76202;SDS011;64985;46.364;17.008;2023-07-29T14:28:21;5.50;;;2.70;;
76202;SDS011;64985;46.364;17.008;2023-07-29T14:31:23;6.10;;;2.90;;
76202;SDS011;64985;46.364;17.008;2023-07-29T14:34:26;5.35;;;2.85;;
76202;SDS011;64985;46.364;17.008;2023-07-29T14:37:28;3.92;;;2.75;;
76202;SDS011;64985;46.364;17.008;2023-07-29T14:40:30;6.18;;;2.90;;
76202;SDS011;64985;46.364;17.008;2023-07-29T14:43:33;4.72;;;2.88;;
76202;SDS011;64985;46.364;17.008;2023-07-29T14:46:35;5.10;;;2.63;;
76202;SDS011;64985;46.364;17.008;2023-07-29T14:49:38;4.50;;;2.97;;
76202;SDS011;64985;46.364;17.008;2023-07-29T14:52:40;4.75;;;2.85;;
76202;SDS011;64985;46.364;17.008;2023-07-29T14:55:42;6.40;;;3.10;;
76202;SDS011;64985;46.364;17.008;2023-07-29T14:58:44;7.57;;;3.03;;
76202;SDS011;64985;46.364;17.008;2023-07-29T15:01:46;7.28;;;3.20;;
76202;SDS011;64985;46.364;17.008;2023-07-29T15:04:49;6.38;;;2.97;;
76202;SDS011;64985;46.364;17.008;2023-07-29T15:07:51;4.75;;;2.63;;
76202;SDS011;64985;46.364;17.008;2023-07-29T15:10:53;4.78;;;2.88;;
76202;SDS011;64985;46.364;17.008;2023-07-29T15:13:56;5.72;;;2.80;;
76202;SDS011;64985;46.364;17.008;2023-07-29T15:16:58;5.80;;;3.05;;
76202;SDS011;64985;46.364;17.008;2023-07-29T15:20:01;7.97;;;2.92;;
76202;SDS011;64985;46.364;17.008;2023-07-29T15:23:04;4.75;;;2.83;;
76202;SDS011;64985;46.364;17.008;2023-07-29T15:26:06;5.70;;;2.88;;
76202;SDS011;64985;46.364;17.008;2023-07-29T15:29:08;4.95;;;2.80;;
76202;SDS011;64985;46.364;17.008;2023-07-29T15:32:10;3.75;;;2.70;;
76202;SDS011;64985;46.364;17.008;2023-07-29T15:35:13;8.07;;;3.03;;
76202;SDS011;64985;46.364;17.008;2023-07-29T15:38:15;7.18;;;2.90;;
76202;SDS011;64985;46.364;17.008;2023-07-29T15:41:17;4.10;;;2.65;;
76202;SDS011;64985;46.364;17.008;2023-07-29T15:44:19;3.55;;;2.75;;
76202;SDS011;64985;46.364;17.008;2023-07-29T15:47:21;3.38;;;2.55;;
76202;SDS011;64985;46.364;17.008;2023-07-29T15:50:23;4.43;;;2.60;;
76202;SDS011;64985;46.364;17.008;2023-07-29T15:53:25;3.67;;;2.53;;
76202;SDS011;64985;46.364;17.008;2023-07-29T15:56:28;4.05;;;2.63;;
76202;SDS011;64985;46.364;17.008;2023-07-29T15:59:30;3.60;;;2.65;;
76202;SDS011;64985;46.364;17.008;2023-07-29T16:02:32;7.32;;;3.00;;
76202;SDS011;64985;46.364;17.008;2023-07-29T16:05:35;3.83;;;2.70;;
76202;SDS011;64985;46.364;17.008;2023-07-29T16:08:37;5.00;;;2.60;;
76202;SDS011;64985;46.364;17.008;2023-07-29T16:11:39;6.65;;;2.88;;
76202;SDS011;64985;46.364;17.008;2023-07-29T16:14:41;3.85;;;2.90;;
76202;SDS011;64985;46.364;17.008;2023-07-29T16:17:43;8.02;;;2.70;;
76202;SDS011;64985;46.364;17.008;2023-07-29T16:20:47;4.93;;;2.70;;
76202;SDS011;64985;46.364;17.008;2023-07-29T16:23:51;4.72;;;2.75;;
76202;SDS011;64985;46.364;17.008;2023-07-29T16:26:54;3.30;;;2.75;;
76202;SDS011;64985;46.364;17.008;2023-07-29T16:29:57;3.63;;;2.83;;
76202;SDS011;64985;46.364;17.008;2023-07-29T16:33:00;3.80;;;2.80;;
76202;SDS011;64985;46.364;17.008;2023-07-29T16:36:02;4.45;;;2.70;;
76202;SDS011;64985;46.364;17.008;2023-07-29T16:39:04;3.30;;;2.70;;
76202;SDS011;64985;46.364;17.008;2023-07-29T16:42:06;3.38;;;2.70;;
76202;SDS011;64985;46.364;17.008;2023-07-29T16:45:09;3.40;;;2.70;;
76202;SDS011;64985;46.364;17.008;2023-07-29T16:48:11;4.63;;;2.90;;
76202;SDS011;64985;46.364;17.008;2023-07-29T16:51:13;3.17;;;2.70;;
76202;SDS011;64985;46.364;17.008;2023-07-29T16:54:16;5.35;;;3.13;;
76202;SDS011;64985;46.364;17.008;2023-07-29T16:57:19;6.18;;;2.80;;
76202;SDS011;64985;46.364;17.008;2023-07-29T17:00:23;5.07;;;2.80;;
76202;SDS011;64985;46.364;17.008;2023-07-29T17:03:25;11.30;;;3.08;;
76202;SDS011;64985;46.364;17.008;2023-07-29T17:06:27;4.93;;;3.03;;
76202;SDS011;64985;46.364;17.008;2023-07-29T17:09:29;3.05;;;2.72;;
76202;SDS011;64985;46.364;17.008;2023-07-29T17:12:31;3.70;;;2.90;;
76202;SDS011;64985;46.364;17.008;2023-07-29T17:15:33;4.43;;;3.20;;
76202;SDS011;64985;46.364;17.008;2023-07-29T17:18:36;3.60;;;2.85;;
76202;SDS011;64985;46.364;17.008;2023-07-29T17:21:40;5.95;;;3.17;;
76202;SDS011;64985;46.364;17.008;2023-07-29T17:24:42;4.85;;;2.85;;
76202;SDS011;64985;46.364;17.008;2023-07-29T17:27:44;4.75;;;3.20;;
76202;SDS011;64985;46.364;17.008;2023-07-29T17:30:51;6.68;;;3.22;;
76202;SDS011;64985;46.364;17.008;2023-07-29T17:33:53;6.05;;;3.42;;
76202;SDS011;64985;46.364;17.008;2023-07-29T17:36:55;5.38;;;3.33;;
76202;SDS011;64985;46.364;17.008;2023-07-29T17:39:58;3.78;;;3.17;;
76202;SDS011;64985;46.364;17.008;2023-07-29T17:43:00;5.43;;;3.25;;
76202;SDS011;64985;46.364;17.008;2023-07-29T17:46:02;3.85;;;3.33;;
76202;SDS011;64985;46.364;17.008;2023-07-29T17:49:04;4.57;;;3.30;;
76202;SDS011;64985;46.364;17.008;2023-07-29T17:52:06;6.43;;;3.40;;
76202;SDS011;64985;46.364;17.008;2023-07-29T17:55:11;4.97;;;3.63;;
76202;SDS011;64985;46.364;17.008;2023-07-29T17:58:13;3.90;;;3.42;;
76202;SDS011;64985;46.364;17.008;2023-07-29T18:01:15;5.00;;;3.25;;
76202;SDS011;64985;46.364;17.008;2023-07-29T18:04:17;5.75;;;3.83;;
76202;SDS011;64985;46.364;17.008;2023-07-29T18:07:20;5.20;;;3.80;;
76202;SDS011;64985;46.364;17.008;2023-07-29T18:10:22;4.28;;;3.78;;
76202;SDS011;64985;46.364;17.008;2023-07-29T18:13:25;5.45;;;4.03;;
76202;SDS011;64985;46.364;17.008;2023-07-29T18:16:27;5.53;;;3.92;;
76202;SDS011;64985;46.364;17.008;2023-07-29T18:19:29;4.57;;;3.80;;
76202;SDS011;64985;46.364;17.008;2023-07-29T18:22:32;5.38;;;4.18;;
76202;SDS011;64985;46.364;17.008;2023-07-29T18:25:34;4.40;;;4.00;;